Flag for USA

Past Weather in Mesquite, Texas, USA — Yesterday and Last 2 Weeks

Currently: 36 °F. Clear. (Weather station: Mesquite Metro Airport, USA). See more current weather

Past Weather in Mesquite — Graph

°F

Mesquite Temperature Yesterday

Maximum temperature yesterday: 57 °F (at 1:50 pm)
Minimum temperature yesterday: 33 °F (at 3:55 am)
Average temperature yesterday: 43 °F

High & Low Weather Summary for the Past Weeks

 TemperatureHumidityPressure
High66 °F (Jan 3, 3:50 pm)100% (Jan 4, 7:50 am)30.47 "Hg (Jan 4, 7:50 am)
Low25 °F (Jan 12, 5:15 am)17% (Jan 15, 12:50 pm)29.78 "Hg (Jan 14, 4:15 am)
Average42 °F68%30.15 "Hg
* Reported Jan 2 11:35 pm — Jan 17 11:15 pm, Mesquite. Weather by CustomWeather, © 2021

Note: Actual official high and low records may vary slightly from our data, if they occured in-between our weather recording intervals... More about our weather records

Mesquite Weather History for the Previous 24 Hours

Scroll right to see more
 ConditionsComfort  
Time TempWeatherWind HumidityBarometerVisibility
11:15 pm
Sun, Jan 17
34 °FClear.5 mph73%30.10 "Hg10 mi
10:55 pm36 °FClear.5 mph65%30.10 "Hg10 mi
10:35 pm38 °FClear.No wind59%30.10 "Hg10 mi
10:15 pm37 °FClear.No wind63%30.11 "Hg10 mi
9:55 pm37 °FClear.5 mph63%30.10 "Hg10 mi
9:35 pm39 °FClear.No wind56%30.11 "Hg10 mi
9:15 pm42 °FClear.No wind51%30.11 "Hg10 mi
8:55 pm41 °FClear.No wind50%30.10 "Hg10 mi
7:50 pm46 °FClear.No wind40%30.10 "Hg10 mi
6:50 pm50 °FClear.7 mph32%30.09 "Hg10 mi
5:50 pm54 °FClear.9 mph28%30.08 "Hg10 mi
4:50 pm57 °FSunny.9 mph27%30.08 "Hg10 mi
3:50 pm57 °FSunny.9 mph25%30.08 "Hg10 mi
2:50 pm57 °FSunny.10 mph25%30.08 "Hg10 mi
1:50 pm57 °FSunny.N/A25%30.10 "Hg10 mi
12:50 pm55 °FPartly sunny.9 mph31%30.13 "Hg10 mi
11:50 am55 °FSunny.10 mph31%30.16 "Hg10 mi
10:50 am54 °FSunny.10 mph33%30.17 "Hg10 mi
9:50 am48 °FPartly sunny.7 mph46%30.16 "Hg10 mi
8:50 am45 °FSunny.6 mph49%30.14 "Hg10 mi
7:50 am43 °FScattered clouds.5 mph53%30.12 "Hg7 mi
6:50 am41 °FClear.7 mph53%30.09 "Hg10 mi
6:35 am42 °FClear.7 mph50%30.09 "Hg10 mi
6:15 am40 °FClear.6 mph51%30.08 "Hg10 mi
5:55 am38 °FClear.7 mph57%30.07 "Hg10 mi
5:35 am38 °FClear.5 mph55%30.05 "Hg10 mi
5:15 am41 °FClear.5 mph47%30.04 "Hg10 mi
4:55 am41 °FClear.6 mph48%30.04 "Hg10 mi
4:35 am35 °FClear.3 mph64%30.04 "Hg10 mi
4:15 am35 °FClear.5 mph66%30.04 "Hg10 mi
3:55 am33 °FClear.5 mph73%30.04 "Hg10 mi
3:35 am38 °FClear.3 mph55%30.04 "Hg10 mi
3:15 am37 °FClear.No wind58%30.04 "Hg10 mi
2:55 am39 °FClear.3 mph51%30.04 "Hg10 mi
2:35 am41 °FClear.5 mph47%30.04 "Hg10 mi
2:15 am39 °FClear.6 mph52%30.04 "Hg10 mi
1:55 am39 °FClear.5 mph53%30.05 "Hg10 mi
1:35 am36 °FClear.5 mph72%30.05 "Hg10 mi
1:15 am38 °FPassing clouds.3 mph60%30.04 "Hg10 mi
12:55 am40 °FOvercast.No wind57%30.05 "Hg10 mi
12:35 am40 °FOvercast.No wind53%30.05 "Hg10 mi
12:15 am39 °FPassing clouds.No wind52%30.04 "Hg10 mi
Weather by CustomWeather, © 2021

See weather overview